sensor_id;sensor_type;location;lat;lon;timestamp;temperature;humidity
62555;DHT22;48610;52.144;8.624;2022-10-20T00:02:50;8.20;99.90
62555;DHT22;48610;52.144;8.624;2022-10-20T00:05:50;8.20;99.90
62555;DHT22;48610;52.144;8.624;2022-10-20T00:08:52;8.20;99.90
62555;DHT22;48610;52.144;8.624;2022-10-20T00:11:54;8.10;99.90
62555;DHT22;48610;52.144;8.624;2022-10-20T00:14:54;8.20;99.90
62555;DHT22;48610;52.144;8.624;2022-10-20T00:17:55;8.30;99.90
62555;DHT22;48610;52.144;8.624;2022-10-20T00:20:55;8.10;99.90
62555;DHT22;48610;52.144;8.624;2022-10-20T00:23:59;8.10;99.90
62555;DHT22;48610;52.144;8.624;2022-10-20T00:27:00;8.10;99.90
62555;DHT22;48610;52.144;8.624;2022-10-20T00:30:01;8.10;99.90
62555;DHT22;48610;52.144;8.624;2022-10-20T00:33:03;8.10;99.90
62555;DHT22;48610;52.144;8.624;2022-10-20T00:36:06;8.20;99.90
62555;DHT22;48610;52.144;8.624;2022-10-20T00:39:07;8.40;99.90
62555;DHT22;48610;52.144;8.624;2022-10-20T00:42:14;8.30;99.90
62555;DHT22;48610;52.144;8.624;2022-10-20T00:45:21;8.20;99.90
62555;DHT22;48610;52.144;8.624;2022-10-20T00:48:25;8.20;99.90
62555;DHT22;48610;52.144;8.624;2022-10-20T00:51:28;8.00;99.90
62555;DHT22;48610;52.144;8.624;2022-10-20T00:54:30;8.00;99.90
62555;DHT22;48610;52.144;8.624;2022-10-20T00:57:31;7.90;99.90
62555;DHT22;48610;52.144;8.624;2022-10-20T01:00:32;8.00;99.90
62555;DHT22;48610;52.144;8.624;2022-10-20T01:03:45;8.00;99.90
62555;DHT22;48610;52.144;8.624;2022-10-20T01:06:46;8.10;99.90
62555;DHT22;48610;52.144;8.624;2022-10-20T01:09:46;8.00;99.90
62555;DHT22;48610;52.144;8.624;2022-10-20T01:13:02;7.90;99.90
62555;DHT22;48610;52.144;8.624;2022-10-20T01:19:56;8.00;99.90
62555;DHT22;48610;52.144;8.624;2022-10-20T01:23:35;8.10;99.90
62555;DHT22;48610;52.144;8.624;2022-10-20T01:30:09;7.90;99.90
62555;DHT22;48610;52.144;8.624;2022-10-20T01:36:38;8.10;99.90
62555;DHT22;48610;52.144;8.624;2022-10-20T01:39:51;8.00;99.90
62555;DHT22;48610;52.144;8.624;2022-10-20T01:42:55;8.10;99.90
62555;DHT22;48610;52.144;8.624;2022-10-20T01:45:57;8.00;99.90
62555;DHT22;48610;52.144;8.624;2022-10-20T01:49:01;8.10;99.90
62555;DHT22;48610;52.144;8.624;2022-10-20T01:52:03;8.20;99.90
62555;DHT22;48610;52.144;8.624;2022-10-20T01:55:11;8.20;99.90
62555;DHT22;48610;52.144;8.624;2022-10-20T02:05:01;8.20;99.90
62555;DHT22;48610;52.144;8.624;2022-10-20T02:14:48;8.00;99.90
62555;DHT22;48610;52.144;8.624;2022-10-20T02:17:52;8.10;99.90
62555;DHT22;48610;52.144;8.624;2022-10-20T02:20:55;8.10;99.90
62555;DHT22;48610;52.144;8.624;2022-10-20T02:23:58;8.10;99.90
62555;DHT22;48610;52.144;8.624;2022-10-20T02:27:15;8.10;99.90
62555;DHT22;48610;52.144;8.624;2022-10-20T02:30:17;8.20;99.90
62555;DHT22;48610;52.144;8.624;2022-10-20T02:33:19;8.10;99.90
62555;DHT22;48610;52.144;8.624;2022-10-20T02:36:20;8.00;99.90
62555;DHT22;48610;52.144;8.624;2022-10-20T02:39:25;8.00;99.90
62555;DHT22;48610;52.144;8.624;2022-10-20T02:42:26;8.10;99.90
62555;DHT22;48610;52.144;8.624;2022-10-20T02:45:27;8.10;99.90
62555;DHT22;48610;52.144;8.624;2022-10-20T02:48:27;8.10;99.90
62555;DHT22;48610;52.144;8.624;2022-10-20T02:51:28;8.10;99.90
62555;DHT22;48610;52.144;8.624;2022-10-20T02:54:29;8.10;99.90
62555;DHT22;48610;52.144;8.624;2022-10-20T02:57:30;8.00;99.90
62555;DHT22;48610;52.144;8.624;2022-10-20T03:00:30;8.00;99.90
62555;DHT22;48610;52.144;8.624;2022-10-20T03:03:31;8.10;99.90
62555;DHT22;48610;52.144;8.624;2022-10-20T03:06:32;8.10;99.90
62555;DHT22;48610;52.144;8.624;2022-10-20T03:09:32;8.20;99.90
62555;DHT22;48610;52.144;8.624;2022-10-20T03:12:33;8.20;99.90
62555;DHT22;48610;52.144;8.624;2022-10-20T03:15:33;8.10;99.90
62555;DHT22;48610;52.144;8.624;2022-10-20T03:18:34;8.10;99.90
62555;DHT22;48610;52.144;8.624;2022-10-20T03:21:35;8.00;99.90
62555;DHT22;48610;52.144;8.624;2022-10-20T03:24:35;8.10;99.90
62555;DHT22;48610;52.144;8.624;2022-10-20T03:27:36;8.10;99.90
62555;DHT22;48610;52.144;8.624;2022-10-20T03:30:37;8.10;99.90
62555;DHT22;48610;52.144;8.624;2022-10-20T03:33:37;8.10;99.90
62555;DHT22;48610;52.144;8.624;2022-10-20T03:36:38;8.00;99.90
62555;DHT22;48610;52.144;8.624;2022-10-20T03:39:39;8.20;99.90
62555;DHT22;48610;52.144;8.624;2022-10-20T03:42:40;8.10;99.90
62555;DHT22;48610;52.144;8.624;2022-10-20T03:45:41;8.10;99.90
62555;DHT22;48610;52.144;8.624;2022-10-20T03:48:42;8.20;99.90
62555;DHT22;48610;52.144;8.624;2022-10-20T03:51:42;8.20;99.90
62555;DHT22;48610;52.144;8.624;2022-10-20T03:54:43;8.20;99.90
62555;DHT22;48610;52.144;8.624;2022-10-20T03:57:44;8.20;99.90
62555;DHT22;48610;52.144;8.624;2022-10-20T04:00:45;8.20;99.90
62555;DHT22;48610;52.144;8.624;2022-10-20T04:03:46;8.20;99.90
62555;DHT22;48610;52.144;8.624;2022-10-20T04:06:46;8.20;99.90
62555;DHT22;48610;52.144;8.624;2022-10-20T04:09:47;8.20;99.90
62555;DHT22;48610;52.144;8.624;2022-10-20T04:12:48;8.20;99.90
62555;DHT22;48610;52.144;8.624;2022-10-20T04:15:49;8.10;99.90
62555;DHT22;48610;52.144;8.624;2022-10-20T04:18:53;8.10;99.90
62555;DHT22;48610;52.144;8.624;2022-10-20T04:21:54;8.20;99.90
62555;DHT22;48610;52.144;8.624;2022-10-20T04:24:55;8.20;99.90
62555;DHT22;48610;52.144;8.624;2022-10-20T04:27:58;8.10;99.90
62555;DHT22;48610;52.144;8.624;2022-10-20T04:30:59;8.10;99.90
62555;DHT22;48610;52.144;8.624;2022-10-20T04:34:00;8.00;99.90
62555;DHT22;48610;52.144;8.624;2022-10-20T04:37:00;8.10;99.90
62555;DHT22;48610;52.144;8.624;2022-10-20T04:40:01;8.10;99.90
62555;DHT22;48610;52.144;8.624;2022-10-20T04:43:02;8.00;99.90
62555;DHT22;48610;52.144;8.624;2022-10-20T04:46:04;8.00;99.90
62555;DHT22;48610;52.144;8.624;2022-10-20T04:49:05;8.10;99.90
62555;DHT22;48610;52.144;8.624;2022-10-20T04:52:06;8.00;99.90
62555;DHT22;48610;52.144;8.624;2022-10-20T04:55:07;8.00;99.90
62555;DHT22;48610;52.144;8.624;2022-10-20T04:58:07;8.00;99.90
62555;DHT22;48610;52.144;8.624;2022-10-20T05:01:09;7.90;99.90
62555;DHT22;48610;52.144;8.624;2022-10-20T05:04:10;7.90;99.90
62555;DHT22;48610;52.144;8.624;2022-10-20T05:07:11;7.90;99.90
62555;DHT22;48610;52.144;8.624;2022-10-20T05:10:11;7.80;99.90
62555;DHT22;48610;52.144;8.624;2022-10-20T05:13:12;7.90;99.90
62555;DHT22;48610;52.144;8.624;2022-10-20T05:16:14;7.90;99.90
62555;DHT22;48610;52.144;8.624;2022-10-20T05:19:16;8.00;99.90
62555;DHT22;48610;52.144;8.624;2022-10-20T05:22:17;7.90;99.90
62555;DHT22;48610;52.144;8.624;2022-10-20T05:25:18;7.80;99.90
62555;DHT22;48610;52.144;8.624;2022-10-20T05:28:18;7.90;99.90
62555;DHT22;48610;52.144;8.624;2022-10-20T05:31:21;8.00;99.90
62555;DHT22;48610;52.144;8.624;2022-10-20T05:34:22;8.00;99.90
62555;DHT22;48610;52.144;8.624;2022-10-20T05:37:23;8.00;99.90
62555;DHT22;48610;52.144;8.624;2022-10-20T05:40:23;8.10;99.90
62555;DHT22;48610;52.144;8.624;2022-10-20T05:43:24;8.10;99.90
62555;DHT22;48610;52.144;8.624;2022-10-20T05:46:27;8.10;99.90
62555;DHT22;48610;52.144;8.624;2022-10-20T05:49:28;8.20;99.90
62555;DHT22;48610;52.144;8.624;2022-10-20T05:52:28;8.30;99.90
62555;DHT22;48610;52.144;8.624;2022-10-20T05:55:29;8.30;99.90
62555;DHT22;48610;52.144;8.624;2022-10-20T05:58:30;8.30;99.90
62555;DHT22;48610;52.144;8.624;2022-10-20T06:01:31;8.30;99.90
62555;DHT22;48610;52.144;8.624;2022-10-20T06:04:46;8.30;99.90
62555;DHT22;48610;52.144;8.624;2022-10-20T06:07:47;8.20;99.90
62555;DHT22;48610;52.144;8.624;2022-10-20T06:10:48;8.30;99.90
62555;DHT22;48610;52.144;8.624;2022-10-20T06:13:48;8.20;99.90
62555;DHT22;48610;52.144;8.624;2022-10-20T06:16:51;8.30;99.90
62555;DHT22;48610;52.144;8.624;2022-10-20T06:19:52;8.30;99.90
62555;DHT22;48610;52.144;8.624;2022-10-20T06:22:52;8.50;99.90
62555;DHT22;48610;52.144;8.624;2022-10-20T06:25:53;8.40;99.90
62555;DHT22;48610;52.144;8.624;2022-10-20T06:28:55;8.40;99.90
62555;DHT22;48610;52.144;8.624;2022-10-20T06:31:56;8.40;99.90
62555;DHT22;48610;52.144;8.624;2022-10-20T06:34:57;8.50;99.90
62555;DHT22;48610;52.144;8.624;2022-10-20T06:37:58;8.60;99.90
62555;DHT22;48610;52.144;8.624;2022-10-20T06:41:02;8.60;99.90
62555;DHT22;48610;52.144;8.624;2022-10-20T06:44:03;8.50;99.90
62555;DHT22;48610;52.144;8.624;2022-10-20T06:47:03;8.70;99.90
62555;DHT22;48610;52.144;8.624;2022-10-20T06:50:07;8.80;99.90
62555;DHT22;48610;52.144;8.624;2022-10-20T06:53:07;8.90;99.90
62555;DHT22;48610;52.144;8.624;2022-10-20T06:56:14;8.90;99.90
62555;DHT22;48610;52.144;8.624;2022-10-20T06:59:15;8.80;99.90
62555;DHT22;48610;52.144;8.624;2022-10-20T07:02:15;8.80;99.90
62555;DHT22;48610;52.144;8.624;2022-10-20T07:05:16;8.90;99.90
62555;DHT22;48610;52.144;8.624;2022-10-20T07:08:19;8.90;99.90
62555;DHT22;48610;52.144;8.624;2022-10-20T07:11:22;8.90;99.90
62555;DHT22;48610;52.144;8.624;2022-10-20T07:14:23;8.90;99.90
62555;DHT22;48610;52.144;8.624;2022-10-20T07:17:23;8.90;99.90
62555;DHT22;48610;52.144;8.624;2022-10-20T07:20:24;9.00;99.90
62555;DHT22;48610;52.144;8.624;2022-10-20T07:23:29;9.00;99.90
62555;DHT22;48610;52.144;8.624;2022-10-20T07:26:33;9.10;99.90
62555;DHT22;48610;52.144;8.624;2022-10-20T07:29:34;9.00;99.90
62555;DHT22;48610;52.144;8.624;2022-10-20T07:32:34;9.20;99.90
62555;DHT22;48610;52.144;8.624;2022-10-20T07:35:35;9.20;99.90
62555;DHT22;48610;52.144;8.624;2022-10-20T07:38:36;9.30;99.90
62555;DHT22;48610;52.144;8.624;2022-10-20T07:41:37;9.40;99.90
62555;DHT22;48610;52.144;8.624;2022-10-20T07:44:38;9.50;99.90
62555;DHT22;48610;52.144;8.624;2022-10-20T07:47:39;9.50;99.90
62555;DHT22;48610;52.144;8.624;2022-10-20T07:50:40;9.50;99.90
62555;DHT22;48610;52.144;8.624;2022-10-20T07:53:41;9.40;99.90
62555;DHT22;48610;52.144;8.624;2022-10-20T07:56:42;9.50;99.90
62555;DHT22;48610;52.144;8.624;2022-10-20T07:59:44;9.60;99.90
62555;DHT22;48610;52.144;8.624;2022-10-20T08:02:44;9.70;99.90
62555;DHT22;48610;52.144;8.624;2022-10-20T08:05:46;9.80;99.90
62555;DHT22;48610;52.144;8.624;2022-10-20T08:08:46;9.70;99.90
62555;DHT22;48610;52.144;8.624;2022-10-20T08:11:47;9.80;99.90
62555;DHT22;48610;52.144;8.624;2022-10-20T08:14:48;9.80;99.90
62555;DHT22;48610;52.144;8.624;2022-10-20T08:17:48;9.90;99.90
62555;DHT22;48610;52.144;8.624;2022-10-20T08:20:49;9.90;99.90
62555;DHT22;48610;52.144;8.624;2022-10-20T08:23:50;10.00;99.90
62555;DHT22;48610;52.144;8.624;2022-10-20T08:26:51;10.00;99.90
62555;DHT22;48610;52.144;8.624;2022-10-20T08:29:51;10.10;99.90
62555;DHT22;48610;52.144;8.624;2022-10-20T08:32:52;10.20;99.90
62555;DHT22;48610;52.144;8.624;2022-10-20T08:35:53;10.20;99.90
62555;DHT22;48610;52.144;8.624;2022-10-20T08:38:54;10.30;99.90
62555;DHT22;48610;52.144;8.624;2022-10-20T08:41:56;10.30;99.90
62555;DHT22;48610;52.144;8.624;2022-10-20T08:44:59;10.30;99.90
62555;DHT22;48610;52.144;8.624;2022-10-20T08:48:00;10.40;99.90
62555;DHT22;48610;52.144;8.624;2022-10-20T08:51:01;10.40;99.90
62555;DHT22;48610;52.144;8.624;2022-10-20T08:54:02;10.50;99.90
62555;DHT22;48610;52.144;8.624;2022-10-20T08:57:14;10.60;99.90
62555;DHT22;48610;52.144;8.624;2022-10-20T09:00:20;10.60;99.90
62555;DHT22;48610;52.144;8.624;2022-10-20T09:03:26;10.80;99.90
62555;DHT22;48610;52.144;8.624;2022-10-20T09:06:27;10.90;99.90
62555;DHT22;48610;52.144;8.624;2022-10-20T09:09:29;11.00;99.90
62555;DHT22;48610;52.144;8.624;2022-10-20T09:12:31;11.20;99.90
62555;DHT22;48610;52.144;8.624;2022-10-20T09:15:32;11.30;99.90
62555;DHT22;48610;52.144;8.624;2022-10-20T09:18:33;11.40;99.90
62555;DHT22;48610;52.144;8.624;2022-10-20T09:21:35;11.40;99.90
62555;DHT22;48610;52.144;8.624;2022-10-20T09:24:38;11.50;99.90
62555;DHT22;48610;52.144;8.624;2022-10-20T09:27:42;11.60;99.90
62555;DHT22;48610;52.144;8.624;2022-10-20T09:30:44;11.80;99.90
62555;DHT22;48610;52.144;8.624;2022-10-20T09:33:45;12.00;99.90
62555;DHT22;48610;52.144;8.624;2022-10-20T09:36:47;11.90;99.90
62555;DHT22;48610;52.144;8.624;2022-10-20T09:39:54;11.80;99.90
62555;DHT22;48610;52.144;8.624;2022-10-20T09:43:00;11.80;99.90
62555;DHT22;48610;52.144;8.624;2022-10-20T09:46:07;11.90;99.90
62555;DHT22;48610;52.144;8.624;2022-10-20T09:49:27;11.80;99.90
62555;DHT22;48610;52.144;8.624;2022-10-20T09:52:30;11.90;99.90
62555;DHT22;48610;52.144;8.624;2022-10-20T09:55:36;12.10;99.90
62555;DHT22;48610;52.144;8.624;2022-10-20T09:58:44;12.20;99.90
62555;DHT22;48610;52.144;8.624;2022-10-20T10:01:57;12.20;99.90
62555;DHT22;48610;52.144;8.624;2022-10-20T10:05:16;12.60;99.90
62555;DHT22;48610;52.144;8.624;2022-10-20T10:08:20;12.90;99.90
62555;DHT22;48610;52.144;8.624;2022-10-20T10:11:25;12.70;99.90
62555;DHT22;48610;52.144;8.624;2022-10-20T10:14:27;12.60;99.90
62555;DHT22;48610;52.144;8.624;2022-10-20T10:17:34;12.60;99.90
62555;DHT22;48610;52.144;8.624;2022-10-20T10:20:37;12.50;99.90
62555;DHT22;48610;52.144;8.624;2022-10-20T10:24:00;12.80;99.90
62555;DHT22;48610;52.144;8.624;2022-10-20T10:27:01;13.20;99.90
62555;DHT22;48610;52.144;8.624;2022-10-20T10:33:28;13.50;99.90
62555;DHT22;48610;52.144;8.624;2022-10-20T10:36:32;14.00;99.90
62555;DHT22;48610;52.144;8.624;2022-10-20T10:39:34;14.00;99.90
62555;DHT22;48610;52.144;8.624;2022-10-20T10:46:07;14.10;99.90
62555;DHT22;48610;52.144;8.624;2022-10-20T10:49:41;14.30;99.90
62555;DHT22;48610;52.144;8.624;2022-10-20T10:53:12;14.80;99.90
62555;DHT22;48610;52.144;8.624;2022-10-20T10:59:35;14.90;99.90
62555;DHT22;48610;52.144;8.624;2022-10-20T11:27:02;14.20;99.90
62555;DHT22;48610;52.144;8.624;2022-10-20T11:30:13;14.10;99.90
62555;DHT22;48610;52.144;8.624;2022-10-20T11:33:22;14.00;99.90
62555;DHT22;48610;52.144;8.624;2022-10-20T11:36:35;14.00;99.90
62555;DHT22;48610;52.144;8.624;2022-10-20T11:40:05;14.10;99.90
62555;DHT22;48610;52.144;8.624;2022-10-20T11:43:28;14.30;99.90
62555;DHT22;48610;52.144;8.624;2022-10-20T11:49:39;14.30;99.90
62555;DHT22;48610;52.144;8.624;2022-10-20T11:53:14;14.50;99.90
62555;DHT22;48610;52.144;8.624;2022-10-20T12:07:10;14.50;99.90
62555;DHT22;48610;52.144;8.624;2022-10-20T12:17:13;15.00;99.90
62555;DHT22;48610;52.144;8.624;2022-10-20T12:33:58;14.40;99.90
62555;DHT22;48610;52.144;8.624;2022-10-20T12:37:18;14.40;99.90
62555;DHT22;48610;52.144;8.624;2022-10-20T12:43:48;14.30;99.90
62555;DHT22;48610;52.144;8.624;2022-10-20T12:47:05;14.40;99.90
62555;DHT22;48610;52.144;8.624;2022-10-20T12:53:26;14.40;99.90
62555;DHT22;48610;52.144;8.624;2022-10-20T12:56:34;14.40;99.90
62555;DHT22;48610;52.144;8.624;2022-10-20T12:59:38;14.40;99.90
62555;DHT22;48610;52.144;8.624;2022-10-20T13:02:57;14.40;99.90
62555;DHT22;48610;52.144;8.624;2022-10-20T13:05:59;14.40;99.90
62555;DHT22;48610;52.144;8.624;2022-10-20T13:12:03;14.30;99.90
62555;DHT22;48610;52.144;8.624;2022-10-20T13:15:10;14.40;99.90
62555;DHT22;48610;52.144;8.624;2022-10-20T13:18:36;14.50;99.90
62555;DHT22;48610;52.144;8.624;2022-10-20T13:21:38;14.40;99.90
62555;DHT22;48610;52.144;8.624;2022-10-20T13:24:40;14.30;99.90
62555;DHT22;48610;52.144;8.624;2022-10-20T13:27:40;14.20;99.90
62555;DHT22;48610;52.144;8.624;2022-10-20T13:34:31;14.20;99.90
62555;DHT22;48610;52.144;8.624;2022-10-20T13:42:06;14.10;99.90
62555;DHT22;48610;52.144;8.624;2022-10-20T13:51:55;14.00;99.90
62555;DHT22;48610;52.144;8.624;2022-10-20T13:54:58;14.00;99.90
62555;DHT22;48610;52.144;8.624;2022-10-20T13:58:06;13.90;99.90
62555;DHT22;48610;52.144;8.624;2022-10-20T14:01:15;13.90;99.90
62555;DHT22;48610;52.144;8.624;2022-10-20T14:04:24;13.90;99.90
62555;DHT22;48610;52.144;8.624;2022-10-20T14:07:25;13.90;99.90
62555;DHT22;48610;52.144;8.624;2022-10-20T14:10:53;13.90;99.90
62555;DHT22;48610;52.144;8.624;2022-10-20T14:13:56;13.80;99.90
62555;DHT22;48610;52.144;8.624;2022-10-20T14:17:01;13.90;99.90
62555;DHT22;48610;52.144;8.624;2022-10-20T14:20:20;13.90;99.90
62555;DHT22;48610;52.144;8.624;2022-10-20T14:23:22;13.80;99.90
62555;DHT22;48610;52.144;8.624;2022-10-20T14:26:24;13.90;99.90
62555;DHT22;48610;52.144;8.624;2022-10-20T14:29:28;13.90;99.90
62555;DHT22;48610;52.144;8.624;2022-10-20T14:32:30;13.90;99.90
62555;DHT22;48610;52.144;8.624;2022-10-20T14:35:38;13.90;99.90
62555;DHT22;48610;52.144;8.624;2022-10-20T14:38:45;13.90;99.90
62555;DHT22;48610;52.144;8.624;2022-10-20T14:41:47;13.80;99.90
62555;DHT22;48610;52.144;8.624;2022-10-20T14:44:49;13.80;99.90
62555;DHT22;48610;52.144;8.624;2022-10-20T14:47:51;13.90;99.90
62555;DHT22;48610;52.144;8.624;2022-10-20T14:50:53;13.90;99.90
62555;DHT22;48610;52.144;8.624;2022-10-20T15:00:34;13.90;99.90
62555;DHT22;48610;52.144;8.624;2022-10-20T15:03:35;13.80;99.90
62555;DHT22;48610;52.144;8.624;2022-10-20T15:06:36;13.90;99.90
62555;DHT22;48610;52.144;8.624;2022-10-20T15:12:49;13.50;99.90
62555;DHT22;48610;52.144;8.624;2022-10-20T15:15:53;13.50;99.90
62555;DHT22;48610;52.144;8.624;2022-10-20T15:22:15;13.30;99.90
62555;DHT22;48610;52.144;8.624;2022-10-20T15:25:16;13.30;99.90
62555;DHT22;48610;52.144;8.624;2022-10-20T15:28:36;13.30;99.90
62555;DHT22;48610;52.144;8.624;2022-10-20T15:31:37;13.20;99.90
62555;DHT22;48610;52.144;8.624;2022-10-20T15:34:38;13.30;99.90
62555;DHT22;48610;52.144;8.624;2022-10-20T15:37:38;13.30;99.90
62555;DHT22;48610;52.144;8.624;2022-10-20T15:40:39;13.20;99.90
62555;DHT22;48610;52.144;8.624;2022-10-20T15:43:41;13.00;99.90
62555;DHT22;48610;52.144;8.624;2022-10-20T15:46:42;13.00;99.90
62555;DHT22;48610;52.144;8.624;2022-10-20T15:49:44;13.00;99.90
62555;DHT22;48610;52.144;8.624;2022-10-20T15:52:45;13.00;99.90
62555;DHT22;48610;52.144;8.624;2022-10-20T15:55:46;12.90;99.90
62555;DHT22;48610;52.144;8.624;2022-10-20T15:58:47;12.90;99.90
62555;DHT22;48610;52.144;8.624;2022-10-20T16:01:50;13.00;99.90
62555;DHT22;48610;52.144;8.624;2022-10-20T16:04:51;13.10;99.90
62555;DHT22;48610;52.144;8.624;2022-10-20T16:07:53;13.00;99.90
62555;DHT22;48610;52.144;8.624;2022-10-20T16:10:53;12.90;99.90
62555;DHT22;48610;52.144;8.624;2022-10-20T16:13:55;13.00;99.90
62555;DHT22;48610;52.144;8.624;2022-10-20T16:16:56;13.00;99.90
62555;DHT22;48610;52.144;8.624;2022-10-20T16:19:56;13.10;99.90
62555;DHT22;48610;52.144;8.624;2022-10-20T16:22:57;13.00;99.90
62555;DHT22;48610;52.144;8.624;2022-10-20T16:25:58;12.80;99.90
62555;DHT22;48610;52.144;8.624;2022-10-20T16:28:58;12.70;99.90
62555;DHT22;48610;52.144;8.624;2022-10-20T16:31:59;12.60;99.90
62555;DHT22;48610;52.144;8.624;2022-10-20T16:34:59;12.60;99.90
62555;DHT22;48610;52.144;8.624;2022-10-20T16:38:00;12.50;99.90
62555;DHT22;48610;52.144;8.624;2022-10-20T16:41:03;12.40;99.90
62555;DHT22;48610;52.144;8.624;2022-10-20T16:44:05;12.40;99.90
62555;DHT22;48610;52.144;8.624;2022-10-20T16:47:06;12.40;99.90
62555;DHT22;48610;52.144;8.624;2022-10-20T16:50:07;12.40;99.90
62555;DHT22;48610;52.144;8.624;2022-10-20T16:53:07;12.40;99.90
62555;DHT22;48610;52.144;8.624;2022-10-20T16:56:08;12.30;99.90
62555;DHT22;48610;52.144;8.624;2022-10-20T16:59:09;12.30;99.90
62555;DHT22;48610;52.144;8.624;2022-10-20T17:02:13;12.30;99.90
62555;DHT22;48610;52.144;8.624;2022-10-20T17:05:14;12.20;99.90
62555;DHT22;48610;52.144;8.624;2022-10-20T17:08:15;12.20;99.90
62555;DHT22;48610;52.144;8.624;2022-10-20T17:11:19;12.20;99.90
62555;DHT22;48610;52.144;8.624;2022-10-20T17:14:20;12.30;99.90
62555;DHT22;48610;52.144;8.624;2022-10-20T17:17:21;12.30;99.90
62555;DHT22;48610;52.144;8.624;2022-10-20T17:20:21;12.30;99.90
62555;DHT22;48610;52.144;8.624;2022-10-20T17:23:23;12.30;99.90
62555;DHT22;48610;52.144;8.624;2022-10-20T17:26:25;12.20;99.90
62555;DHT22;48610;52.144;8.624;2022-10-20T17:29:26;12.20;99.90
62555;DHT22;48610;52.144;8.624;2022-10-20T17:32:27;12.30;99.90
62555;DHT22;48610;52.144;8.624;2022-10-20T17:35:28;12.30;99.90
62555;DHT22;48610;52.144;8.624;2022-10-20T17:38:29;12.30;99.90
62555;DHT22;48610;52.144;8.624;2022-10-20T17:41:30;12.30;99.90
62555;DHT22;48610;52.144;8.624;2022-10-20T17:44:31;12.20;99.90
62555;DHT22;48610;52.144;8.624;2022-10-20T17:47:31;12.40;99.90
62555;DHT22;48610;52.144;8.624;2022-10-20T17:50:33;12.30;99.90
62555;DHT22;48610;52.144;8.624;2022-10-20T17:53:35;12.10;99.90
62555;DHT22;48610;52.144;8.624;2022-10-20T17:56:36;12.10;99.90
62555;DHT22;48610;52.144;8.624;2022-10-20T17:59:39;12.20;99.90
62555;DHT22;48610;52.144;8.624;2022-10-20T18:02:45;12.20;99.90
62555;DHT22;48610;52.144;8.624;2022-10-20T18:05:46;12.20;99.90
62555;DHT22;48610;52.144;8.624;2022-10-20T18:08:47;12.30;99.90
62555;DHT22;48610;52.144;8.624;2022-10-20T18:11:49;12.30;99.90
62555;DHT22;48610;52.144;8.624;2022-10-20T18:14:50;12.30;99.90
62555;DHT22;48610;52.144;8.624;2022-10-20T18:17:51;12.40;99.90
62555;DHT22;48610;52.144;8.624;2022-10-20T18:20:55;12.40;99.90
62555;DHT22;48610;52.144;8.624;2022-10-20T18:24:03;12.30;99.90
62555;DHT22;48610;52.144;8.624;2022-10-20T18:27:03;12.40;99.90
62555;DHT22;48610;52.144;8.624;2022-10-20T18:30:05;12.40;99.90
62555;DHT22;48610;52.144;8.624;2022-10-20T18:33:08;12.40;99.90
62555;DHT22;48610;52.144;8.624;2022-10-20T18:36:10;12.40;99.90
62555;DHT22;48610;52.144;8.624;2022-10-20T18:39:12;12.30;99.90
62555;DHT22;48610;52.144;8.624;2022-10-20T18:42:13;12.20;99.90
62555;DHT22;48610;52.144;8.624;2022-10-20T18:45:13;12.30;99.90
62555;DHT22;48610;52.144;8.624;2022-10-20T18:48:14;12.30;99.90
62555;DHT22;48610;52.144;8.624;2022-10-20T18:51:15;12.40;99.90
62555;DHT22;48610;52.144;8.624;2022-10-20T18:54:17;12.40;99.90
62555;DHT22;48610;52.144;8.624;2022-10-20T18:57:18;12.30;99.90
62555;DHT22;48610;52.144;8.624;2022-10-20T19:00:18;12.30;99.90
62555;DHT22;48610;52.144;8.624;2022-10-20T19:03:19;12.30;99.90
62555;DHT22;48610;52.144;8.624;2022-10-20T19:09:25;12.30;99.90
62555;DHT22;48610;52.144;8.624;2022-10-20T19:12:25;12.20;99.90
62555;DHT22;48610;52.144;8.624;2022-10-20T19:15:26;12.30;99.90
62555;DHT22;48610;52.144;8.624;2022-10-20T19:18:28;12.10;99.90
62555;DHT22;48610;52.144;8.624;2022-10-20T19:21:29;12.00;99.90
62555;DHT22;48610;52.144;8.624;2022-10-20T19:24:30;12.00;99.90
62555;DHT22;48610;52.144;8.624;2022-10-20T19:27:31;12.10;99.90
62555;DHT22;48610;52.144;8.624;2022-10-20T19:30:33;12.20;99.90
62555;DHT22;48610;52.144;8.624;2022-10-20T19:33:34;12.20;99.90
62555;DHT22;48610;52.144;8.624;2022-10-20T19:36:35;12.20;99.90
62555;DHT22;48610;52.144;8.624;2022-10-20T19:39:38;12.20;99.90
62555;DHT22;48610;52.144;8.624;2022-10-20T19:42:39;12.20;99.90
62555;DHT22;48610;52.144;8.624;2022-10-20T19:45:40;12.20;99.90
62555;DHT22;48610;52.144;8.624;2022-10-20T19:48:41;12.10;99.90
62555;DHT22;48610;52.144;8.624;2022-10-20T19:51:43;12.10;99.90
62555;DHT22;48610;52.144;8.624;2022-10-20T19:54:43;12.10;99.90
62555;DHT22;48610;52.144;8.624;2022-10-20T19:57:44;12.00;99.90
62555;DHT22;48610;52.144;8.624;2022-10-20T20:00:50;12.00;99.90
62555;DHT22;48610;52.144;8.624;2022-10-20T20:03:51;12.00;99.90
62555;DHT22;48610;52.144;8.624;2022-10-20T20:06:52;12.10;99.90
62555;DHT22;48610;52.144;8.624;2022-10-20T20:09:53;12.20;99.90
62555;DHT22;48610;52.144;8.624;2022-10-20T20:12:54;12.20;99.90
62555;DHT22;48610;52.144;8.624;2022-10-20T20:15:54;12.10;99.90
62555;DHT22;48610;52.144;8.624;2022-10-20T20:18:55;12.10;99.90
62555;DHT22;48610;52.144;8.624;2022-10-20T20:21:56;12.20;99.90
62555;DHT22;48610;52.144;8.624;2022-10-20T20:24:57;12.20;99.90
62555;DHT22;48610;52.144;8.624;2022-10-20T20:27:57;12.10;99.90
62555;DHT22;48610;52.144;8.624;2022-10-20T20:31:03;12.10;99.90
62555;DHT22;48610;52.144;8.624;2022-10-20T20:34:04;12.10;99.90
62555;DHT22;48610;52.144;8.624;2022-10-20T20:37:04;12.10;99.90
62555;DHT22;48610;52.144;8.624;2022-10-20T20:40:05;12.10;99.90
62555;DHT22;48610;52.144;8.624;2022-10-20T20:43:06;12.10;99.90
62555;DHT22;48610;52.144;8.624;2022-10-20T20:46:11;12.10;99.90
62555;DHT22;48610;52.144;8.624;2022-10-20T20:49:12;12.20;99.90
62555;DHT22;48610;52.144;8.624;2022-10-20T20:52:13;12.10;99.90
62555;DHT22;48610;52.144;8.624;2022-10-20T20:55:14;12.20;99.90
62555;DHT22;48610;52.144;8.624;2022-10-20T20:58:14;12.20;99.90
62555;DHT22;48610;52.144;8.624;2022-10-20T21:01:17;12.10;99.90
62555;DHT22;48610;52.144;8.624;2022-10-20T21:04:18;12.10;99.90
62555;DHT22;48610;52.144;8.624;2022-10-20T21:07:20;12.10;99.90
62555;DHT22;48610;52.144;8.624;2022-10-20T21:10:21;12.10;99.90
62555;DHT22;48610;52.144;8.624;2022-10-20T21:13:21;12.20;99.90
62555;DHT22;48610;52.144;8.624;2022-10-20T21:16:24;12.00;99.90
62555;DHT22;48610;52.144;8.624;2022-10-20T21:19:25;12.00;99.90
62555;DHT22;48610;52.144;8.624;2022-10-20T21:22:26;12.10;99.90
62555;DHT22;48610;52.144;8.624;2022-10-20T21:25:26;12.10;99.90
62555;DHT22;48610;52.144;8.624;2022-10-20T21:28:27;11.90;99.90
62555;DHT22;48610;52.144;8.624;2022-10-20T21:31:28;12.00;99.90
62555;DHT22;48610;52.144;8.624;2022-10-20T21:34:32;12.00;99.90
62555;DHT22;48610;52.144;8.624;2022-10-20T21:37:32;12.00;99.90
62555;DHT22;48610;52.144;8.624;2022-10-20T21:40:33;11.90;99.90